Terminal Aerodrome Forecast
Issued by NWS

Home | Current Version | Previous Version | Text Only | Print | Product List | Glossary On
Versions: 1 2 3 4 5 6 7 8 9 10 11 12 13 14 15 16 17 18 19
000
FTUS43 KDLH 302300 CCA
TAFHIB
TAF COR
KHIB 302343Z 0100/0124 14007KT P6SM SCT200
     FM011200 VRB03KT P6SM VCSH BKN080
     FM011500 23008KT 6SM -RA SCT035 OVC050=

USA.gov is the U.S. government's official web portal to all federal, state and local government web resources and services.